sensor_id;sensor_type;location;lat;lon;timestamp;temperature;humidity
9768;DHT22;4923;52.520;13.494;2023-01-15T00:00:41;9.10;99.90
9768;DHT22;4923;52.520;13.494;2023-01-15T00:03:28;9.20;99.90
9768;DHT22;4923;52.520;13.494;2023-01-15T00:06:16;9.20;99.90
9768;DHT22;4923;52.520;13.494;2023-01-15T00:09:04;9.20;99.90
9768;DHT22;4923;52.520;13.494;2023-01-15T00:11:51;9.20;99.90
9768;DHT22;4923;52.520;13.494;2023-01-15T00:14:39;9.20;99.90
9768;DHT22;4923;52.520;13.494;2023-01-15T00:17:26;9.20;99.90
9768;DHT22;4923;52.520;13.494;2023-01-15T00:20:13;9.20;99.90
9768;DHT22;4923;52.520;13.494;2023-01-15T00:23:00;9.20;99.90
9768;DHT22;4923;52.520;13.494;2023-01-15T00:25:47;9.30;99.90
9768;DHT22;4923;52.520;13.494;2023-01-15T00:28:47;9.30;99.90
9768;DHT22;4923;52.520;13.494;2023-01-15T00:31:36;9.30;99.30
9768;DHT22;4923;52.520;13.494;2023-01-15T00:34:23;9.30;95.60
9768;DHT22;4923;52.520;13.494;2023-01-15T00:37:10;9.40;92.30
9768;DHT22;4923;52.520;13.494;2023-01-15T00:39:56;9.30;82.60
9768;DHT22;4923;52.520;13.494;2023-01-15T00:42:43;9.30;73.00
9768;DHT22;4923;52.520;13.494;2023-01-15T00:45:30;9.30;63.10
9768;DHT22;4923;52.520;13.494;2023-01-15T00:48:18;9.40;58.50
9768;DHT22;4923;52.520;13.494;2023-01-15T00:51:06;9.40;49.60
9768;DHT22;4923;52.520;13.494;2023-01-15T00:53:52;9.40;42.70
9768;DHT22;4923;52.520;13.494;2023-01-15T00:56:39;9.40;42.70
9768;DHT22;4923;52.520;13.494;2023-01-15T00:59:26;9.50;44.30
9768;DHT22;4923;52.520;13.494;2023-01-15T01:02:13;9.50;37.90
9768;DHT22;4923;52.520;13.494;2023-01-15T01:05:01;9.50;31.80
9768;DHT22;4923;52.520;13.494;2023-01-15T01:07:48;9.50;27.70
9768;DHT22;4923;52.520;13.494;2023-01-15T01:10:35;9.50;23.70
9768;DHT22;4923;52.520;13.494;2023-01-15T01:13:22;9.50;20.00
9768;DHT22;4923;52.520;13.494;2023-01-15T01:16:22;9.40;20.60
9768;DHT22;4923;52.520;13.494;2023-01-15T01:19:11;9.40;18.00
9768;DHT22;4923;52.520;13.494;2023-01-15T01:22:00;9.40;19.10
9768;DHT22;4923;52.520;13.494;2023-01-15T01:24:47;9.40;17.40
9768;DHT22;4923;52.520;13.494;2023-01-15T01:27:33;9.50;18.50
9768;DHT22;4923;52.520;13.494;2023-01-15T01:30:20;9.50;14.30
9768;DHT22;4923;52.520;13.494;2023-01-15T01:33:07;9.60;13.80
9768;DHT22;4923;52.520;13.494;2023-01-15T01:35:54;9.60;9.90
9768;DHT22;4923;52.520;13.494;2023-01-15T01:38:42;9.70;6.30
9768;DHT22;4923;52.520;13.494;2023-01-15T01:41:30;9.80;1.00
9768;DHT22;4923;52.520;13.494;2023-01-15T01:47:42;9.80;1.00
9768;DHT22;4923;52.520;13.494;2023-01-15T01:50:29;9.80;1.00
9768;DHT22;4923;52.520;13.494;2023-01-15T01:53:21;9.80;1.00
9768;DHT22;4923;52.520;13.494;2023-01-15T01:56:10;9.90;1.00
9768;DHT22;4923;52.520;13.494;2023-01-15T01:58:57;9.90;1.00
9768;DHT22;4923;52.520;13.494;2023-01-15T02:01:44;9.90;1.00
9768;DHT22;4923;52.520;13.494;2023-01-15T02:04:31;9.90;1.00
9768;DHT22;4923;52.520;13.494;2023-01-15T02:07:19;9.90;1.00
9768;DHT22;4923;52.520;13.494;2023-01-15T02:10:11;9.90;1.00
9768;DHT22;4923;52.520;13.494;2023-01-15T02:13:04;9.80;1.00
9768;DHT22;4923;52.520;13.494;2023-01-15T02:15:59;9.80;4.60
9768;DHT22;4923;52.520;13.494;2023-01-15T02:18:53;9.80;9.90
9768;DHT22;4923;52.520;13.494;2023-01-15T02:21:47;9.80;18.40
9768;DHT22;4923;52.520;13.494;2023-01-15T02:24:44;9.70;30.20
9768;DHT22;4923;52.520;13.494;2023-01-15T02:27:36;9.70;51.50
9768;DHT22;4923;52.520;13.494;2023-01-15T02:30:29;9.70;74.00
9768;DHT22;4923;52.520;13.494;2023-01-15T02:33:20;9.70;90.50
9768;DHT22;4923;52.520;13.494;2023-01-15T02:36:11;9.70;98.10
9768;DHT22;4923;52.520;13.494;2023-01-15T02:39:02;9.70;99.90
9768;DHT22;4923;52.520;13.494;2023-01-15T02:41:53;9.60;99.90
9768;DHT22;4923;52.520;13.494;2023-01-15T02:44:45;9.60;99.90
9768;DHT22;4923;52.520;13.494;2023-01-15T02:47:34;9.60;99.90
9768;DHT22;4923;52.520;13.494;2023-01-15T02:50:26;9.50;99.90
9768;DHT22;4923;52.520;13.494;2023-01-15T02:53:18;9.50;99.90
9768;DHT22;4923;52.520;13.494;2023-01-15T02:56:11;9.50;99.90
9768;DHT22;4923;52.520;13.494;2023-01-15T02:59:04;9.50;99.90
9768;DHT22;4923;52.520;13.494;2023-01-15T03:01:57;9.40;99.90
9768;DHT22;4923;52.520;13.494;2023-01-15T03:04:48;9.40;99.90
9768;DHT22;4923;52.520;13.494;2023-01-15T03:07:39;9.40;99.90
9768;DHT22;4923;52.520;13.494;2023-01-15T03:10:33;9.40;99.90
9768;DHT22;4923;52.520;13.494;2023-01-15T03:13:28;9.40;99.90
9768;DHT22;4923;52.520;13.494;2023-01-15T03:16:21;9.40;99.90
9768;DHT22;4923;52.520;13.494;2023-01-15T03:19:26;9.30;99.90
9768;DHT22;4923;52.520;13.494;2023-01-15T03:22:18;9.30;99.90
9768;DHT22;4923;52.520;13.494;2023-01-15T03:25:09;9.40;99.90
9768;DHT22;4923;52.520;13.494;2023-01-15T03:28:00;9.40;99.90
9768;DHT22;4923;52.520;13.494;2023-01-15T03:30:48;9.40;99.90
9768;DHT22;4923;52.520;13.494;2023-01-15T03:33:35;9.40;99.90
9768;DHT22;4923;52.520;13.494;2023-01-15T03:36:23;9.40;99.90
9768;DHT22;4923;52.520;13.494;2023-01-15T03:39:10;9.40;99.90
9768;DHT22;4923;52.520;13.494;2023-01-15T03:42:05;9.40;99.90
9768;DHT22;4923;52.520;13.494;2023-01-15T03:45:00;9.40;99.90
9768;DHT22;4923;52.520;13.494;2023-01-15T03:47:55;9.40;99.90
9768;DHT22;4923;52.520;13.494;2023-01-15T03:50:48;9.40;99.90
9768;DHT22;4923;52.520;13.494;2023-01-15T03:53:43;9.40;99.90
9768;DHT22;4923;52.520;13.494;2023-01-15T03:56:35;9.40;99.90
9768;DHT22;4923;52.520;13.494;2023-01-15T03:59:28;9.40;99.90
9768;DHT22;4923;52.520;13.494;2023-01-15T04:02:18;9.40;99.90
9768;DHT22;4923;52.520;13.494;2023-01-15T04:05:06;9.40;99.90
9768;DHT22;4923;52.520;13.494;2023-01-15T04:07:54;9.40;99.90
9768;DHT22;4923;52.520;13.494;2023-01-15T04:10:52;9.40;99.90
9768;DHT22;4923;52.520;13.494;2023-01-15T04:13:39;9.40;99.90
9768;DHT22;4923;52.520;13.494;2023-01-15T04:16:28;9.40;99.90
9768;DHT22;4923;52.520;13.494;2023-01-15T04:19:15;9.30;99.90
9768;DHT22;4923;52.520;13.494;2023-01-15T04:22:02;9.00;99.90
9768;DHT22;4923;52.520;13.494;2023-01-15T04:24:49;8.70;99.90
9768;DHT22;4923;52.520;13.494;2023-01-15T04:27:38;8.50;99.90
9768;DHT22;4923;52.520;13.494;2023-01-15T04:30:25;8.30;99.90
9768;DHT22;4923;52.520;13.494;2023-01-15T04:33:12;8.20;99.90
9768;DHT22;4923;52.520;13.494;2023-01-15T04:35:59;8.00;99.90
9768;DHT22;4923;52.520;13.494;2023-01-15T04:38:46;7.60;99.90
9768;DHT22;4923;52.520;13.494;2023-01-15T04:41:33;7.30;99.90
9768;DHT22;4923;52.520;13.494;2023-01-15T04:44:39;7.20;99.90
9768;DHT22;4923;52.520;13.494;2023-01-15T04:47:29;6.90;99.90
9768;DHT22;4923;52.520;13.494;2023-01-15T04:50:16;6.80;86.10
9768;DHT22;4923;52.520;13.494;2023-01-15T04:53:03;6.70;54.00
9768;DHT22;4923;52.520;13.494;2023-01-15T04:55:49;6.50;41.00
9768;DHT22;4923;52.520;13.494;2023-01-15T04:58:36;6.50;29.30
9768;DHT22;4923;52.520;13.494;2023-01-15T05:01:25;6.40;1.00
9768;DHT22;4923;52.520;13.494;2023-01-15T05:04:12;6.30;1.00
9768;DHT22;4923;52.520;13.494;2023-01-15T05:07:00;6.30;1.00
9768;DHT22;4923;52.520;13.494;2023-01-15T05:09:47;6.20;1.00
9768;DHT22;4923;52.520;13.494;2023-01-15T05:12:36;6.20;1.00
9768;DHT22;4923;52.520;13.494;2023-01-15T05:15:23;6.20;1.00
9768;DHT22;4923;52.520;13.494;2023-01-15T05:18:11;6.20;1.00
9768;DHT22;4923;52.520;13.494;2023-01-15T05:20:59;6.20;1.00
9768;DHT22;4923;52.520;13.494;2023-01-15T05:23:47;6.20;1.00
9768;DHT22;4923;52.520;13.494;2023-01-15T05:26:34;6.20;1.00
9768;DHT22;4923;52.520;13.494;2023-01-15T05:29:21;6.20;1.00
9768;DHT22;4923;52.520;13.494;2023-01-15T05:32:08;6.20;1.00
9768;DHT22;4923;52.520;13.494;2023-01-15T05:34:56;6.20;1.00
9768;DHT22;4923;52.520;13.494;2023-01-15T05:37:43;6.20;1.00
9768;DHT22;4923;52.520;13.494;2023-01-15T05:40:30;6.20;1.00
9768;DHT22;4923;52.520;13.494;2023-01-15T05:43:17;6.20;1.00
9768;DHT22;4923;52.520;13.494;2023-01-15T05:46:04;6.20;1.00
9768;DHT22;4923;52.520;13.494;2023-01-15T05:48:51;6.20;1.00
9768;DHT22;4923;52.520;13.494;2023-01-15T05:51:39;6.20;1.00
9768;DHT22;4923;52.520;13.494;2023-01-15T05:54:28;6.20;1.00
9768;DHT22;4923;52.520;13.494;2023-01-15T05:57:15;6.30;1.00
9768;DHT22;4923;52.520;13.494;2023-01-15T06:00:03;6.30;1.00
9768;DHT22;4923;52.520;13.494;2023-01-15T06:02:51;6.30;1.00
9768;DHT22;4923;52.520;13.494;2023-01-15T06:05:37;6.30;1.00
9768;DHT22;4923;52.520;13.494;2023-01-15T06:08:25;6.30;1.00
9768;DHT22;4923;52.520;13.494;2023-01-15T06:11:12;6.30;1.00
9768;DHT22;4923;52.520;13.494;2023-01-15T06:13:59;6.30;1.00
9768;DHT22;4923;52.520;13.494;2023-01-15T06:16:46;6.40;1.00
9768;DHT22;4923;52.520;13.494;2023-01-15T06:19:33;6.40;1.00
9768;DHT22;4923;52.520;13.494;2023-01-15T06:22:20;6.40;1.00
9768;DHT22;4923;52.520;13.494;2023-01-15T06:25:08;6.40;1.00
9768;DHT22;4923;52.520;13.494;2023-01-15T06:27:55;6.40;1.00
9768;DHT22;4923;52.520;13.494;2023-01-15T06:30:43;6.40;1.00
9768;DHT22;4923;52.520;13.494;2023-01-15T06:33:30;6.40;1.00
9768;DHT22;4923;52.520;13.494;2023-01-15T06:36:19;6.40;1.00
9768;DHT22;4923;52.520;13.494;2023-01-15T06:39:06;6.40;1.00
9768;DHT22;4923;52.520;13.494;2023-01-15T06:41:55;6.50;1.00
9768;DHT22;4923;52.520;13.494;2023-01-15T06:44:59;6.40;1.00
9768;DHT22;4923;52.520;13.494;2023-01-15T06:48:03;6.40;1.00
9768;DHT22;4923;52.520;13.494;2023-01-15T06:50:51;6.50;1.00
9768;DHT22;4923;52.520;13.494;2023-01-15T06:53:39;6.50;1.00
9768;DHT22;4923;52.520;13.494;2023-01-15T06:56:26;6.50;1.00
9768;DHT22;4923;52.520;13.494;2023-01-15T06:59:14;6.50;1.00
9768;DHT22;4923;52.520;13.494;2023-01-15T07:02:01;6.50;1.00
9768;DHT22;4923;52.520;13.494;2023-01-15T07:04:48;6.50;1.00
9768;DHT22;4923;52.520;13.494;2023-01-15T07:07:35;6.50;1.00
9768;DHT22;4923;52.520;13.494;2023-01-15T07:10:22;6.50;1.00
9768;DHT22;4923;52.520;13.494;2023-01-15T07:13:09;6.50;1.00
9768;DHT22;4923;52.520;13.494;2023-01-15T07:15:58;6.40;1.00
9768;DHT22;4923;52.520;13.494;2023-01-15T07:18:45;6.50;2.00
9768;DHT22;4923;52.520;13.494;2023-01-15T07:21:34;6.50;11.40
9768;DHT22;4923;52.520;13.494;2023-01-15T07:24:21;6.50;19.50
9768;DHT22;4923;52.520;13.494;2023-01-15T07:27:08;6.40;22.10
9768;DHT22;4923;52.520;13.494;2023-01-15T07:29:55;6.40;26.80
9768;DHT22;4923;52.520;13.494;2023-01-15T07:32:43;6.40;32.60
9768;DHT22;4923;52.520;13.494;2023-01-15T07:35:30;6.40;35.10
9768;DHT22;4923;52.520;13.494;2023-01-15T07:38:16;6.40;41.10
9768;DHT22;4923;52.520;13.494;2023-01-15T07:41:03;6.40;48.60
9768;DHT22;4923;52.520;13.494;2023-01-15T07:44:08;6.40;51.60
9768;DHT22;4923;52.520;13.494;2023-01-15T07:47:16;6.40;55.50
9768;DHT22;4923;52.520;13.494;2023-01-15T07:50:23;6.40;58.90
9768;DHT22;4923;52.520;13.494;2023-01-15T07:53:10;6.30;58.70
9768;DHT22;4923;52.520;13.494;2023-01-15T07:55:57;6.30;61.50
9768;DHT22;4923;52.520;13.494;2023-01-15T07:58:44;6.40;62.20
9768;DHT22;4923;52.520;13.494;2023-01-15T08:01:34;6.40;61.10
9768;DHT22;4923;52.520;13.494;2023-01-15T08:04:21;6.40;62.30
9768;DHT22;4923;52.520;13.494;2023-01-15T08:07:09;6.50;71.90
9768;DHT22;4923;52.520;13.494;2023-01-15T08:09:57;6.60;84.70
9768;DHT22;4923;52.520;13.494;2023-01-15T08:12:44;6.60;92.70
9768;DHT22;4923;52.520;13.494;2023-01-15T08:15:49;6.70;95.00
9768;DHT22;4923;52.520;13.494;2023-01-15T08:18:35;6.70;90.90
9768;DHT22;4923;52.520;13.494;2023-01-15T08:21:22;6.60;73.70
9768;DHT22;4923;52.520;13.494;2023-01-15T08:24:10;6.70;64.80
9768;DHT22;4923;52.520;13.494;2023-01-15T08:26:57;6.70;57.30
9768;DHT22;4923;52.520;13.494;2023-01-15T08:29:44;6.70;57.90
9768;DHT22;4923;52.520;13.494;2023-01-15T08:32:31;6.70;52.70
9768;DHT22;4923;52.520;13.494;2023-01-15T08:35:18;6.70;46.90
9768;DHT22;4923;52.520;13.494;2023-01-15T08:38:06;6.70;36.60
9768;DHT22;4923;52.520;13.494;2023-01-15T08:40:54;6.70;27.00
9768;DHT22;4923;52.520;13.494;2023-01-15T08:43:44;6.70;20.10
9768;DHT22;4923;52.520;13.494;2023-01-15T08:46:31;6.70;12.00
9768;DHT22;4923;52.520;13.494;2023-01-15T08:49:19;6.70;2.90
9768;DHT22;4923;52.520;13.494;2023-01-15T08:52:06;6.80;1.00
9768;DHT22;4923;52.520;13.494;2023-01-15T08:54:53;6.80;1.00
9768;DHT22;4923;52.520;13.494;2023-01-15T08:57:41;6.80;1.00
9768;DHT22;4923;52.520;13.494;2023-01-15T09:00:29;6.80;1.00
9768;DHT22;4923;52.520;13.494;2023-01-15T09:03:16;6.90;1.00
9768;DHT22;4923;52.520;13.494;2023-01-15T09:06:03;6.90;1.00
9768;DHT22;4923;52.520;13.494;2023-01-15T09:08:51;7.00;1.00
9768;DHT22;4923;52.520;13.494;2023-01-15T09:11:38;7.00;1.00
9768;DHT22;4923;52.520;13.494;2023-01-15T09:14:27;7.00;1.00
9768;DHT22;4923;52.520;13.494;2023-01-15T09:17:14;7.10;1.00
9768;DHT22;4923;52.520;13.494;2023-01-15T09:20:01;7.10;1.00
9768;DHT22;4923;52.520;13.494;2023-01-15T09:22:48;7.10;1.00
9768;DHT22;4923;52.520;13.494;2023-01-15T09:25:35;7.20;1.00
9768;DHT22;4923;52.520;13.494;2023-01-15T09:28:22;7.20;1.00
9768;DHT22;4923;52.520;13.494;2023-01-15T09:31:10;7.20;1.00
9768;DHT22;4923;52.520;13.494;2023-01-15T09:33:57;7.20;1.00
9768;DHT22;4923;52.520;13.494;2023-01-15T09:36:44;7.40;1.00
9768;DHT22;4923;52.520;13.494;2023-01-15T09:39:31;7.40;1.00
9768;DHT22;4923;52.520;13.494;2023-01-15T09:42:30;7.40;1.00
9768;DHT22;4923;52.520;13.494;2023-01-15T09:45:25;7.50;1.00
9768;DHT22;4923;52.520;13.494;2023-01-15T09:48:32;8.10;1.00
9768;DHT22;4923;52.520;13.494;2023-01-15T09:51:29;8.30;1.00
9768;DHT22;4923;52.520;13.494;2023-01-15T09:54:31;8.50;1.00
9768;DHT22;4923;52.520;13.494;2023-01-15T09:57:22;8.40;1.00
9768;DHT22;4923;52.520;13.494;2023-01-15T10:00:16;8.40;1.00
9768;DHT22;4923;52.520;13.494;2023-01-15T10:03:06;8.40;1.00
9768;DHT22;4923;52.520;13.494;2023-01-15T10:06:06;8.40;1.00
9768;DHT22;4923;52.520;13.494;2023-01-15T10:09:00;8.40;1.00
9768;DHT22;4923;52.520;13.494;2023-01-15T10:11:51;8.40;1.00
9768;DHT22;4923;52.520;13.494;2023-01-15T10:15:05;8.30;1.00
9768;DHT22;4923;52.520;13.494;2023-01-15T10:17:55;8.50;1.00
9768;DHT22;4923;52.520;13.494;2023-01-15T10:20:48;8.40;1.00
9768;DHT22;4923;52.520;13.494;2023-01-15T10:23:44;8.30;1.00
9768;DHT22;4923;52.520;13.494;2023-01-15T10:26:35;8.30;1.00
9768;DHT22;4923;52.520;13.494;2023-01-15T10:29:30;8.40;1.00
9768;DHT22;4923;52.520;13.494;2023-01-15T10:32:25;8.40;1.00
9768;DHT22;4923;52.520;13.494;2023-01-15T10:35:39;8.50;1.00
9768;DHT22;4923;52.520;13.494;2023-01-15T10:38:32;8.50;1.00
9768;DHT22;4923;52.520;13.494;2023-01-15T10:41:37;8.60;1.00
9768;DHT22;4923;52.520;13.494;2023-01-15T10:44:39;8.50;1.00
9768;DHT22;4923;52.520;13.494;2023-01-15T10:47:32;8.60;1.00
9768;DHT22;4923;52.520;13.494;2023-01-15T10:50:22;8.60;1.00
9768;DHT22;4923;52.520;13.494;2023-01-15T10:53:13;8.60;1.00
9768;DHT22;4923;52.520;13.494;2023-01-15T10:56:08;8.70;1.00
9768;DHT22;4923;52.520;13.494;2023-01-15T10:59:07;8.70;1.00
9768;DHT22;4923;52.520;13.494;2023-01-15T11:01:58;8.50;1.00
9768;DHT22;4923;52.520;13.494;2023-01-15T11:04:46;8.50;1.00
9768;DHT22;4923;52.520;13.494;2023-01-15T11:07:36;8.60;1.00
9768;DHT22;4923;52.520;13.494;2023-01-15T11:10:24;8.60;1.00
9768;DHT22;4923;52.520;13.494;2023-01-15T11:13:18;8.70;1.00
9768;DHT22;4923;52.520;13.494;2023-01-15T11:16:26;8.70;1.00
9768;DHT22;4923;52.520;13.494;2023-01-15T11:19:34;8.80;1.00
9768;DHT22;4923;52.520;13.494;2023-01-15T11:22:22;8.80;1.00
9768;DHT22;4923;52.520;13.494;2023-01-15T11:25:12;8.70;1.00
9768;DHT22;4923;52.520;13.494;2023-01-15T11:28:02;8.80;1.00
9768;DHT22;4923;52.520;13.494;2023-01-15T11:30:53;8.80;1.00
9768;DHT22;4923;52.520;13.494;2023-01-15T11:33:54;8.70;1.00
9768;DHT22;4923;52.520;13.494;2023-01-15T11:36:41;8.70;1.00
9768;DHT22;4923;52.520;13.494;2023-01-15T11:39:28;8.70;1.00
9768;DHT22;4923;52.520;13.494;2023-01-15T11:42:17;8.70;1.00
9768;DHT22;4923;52.520;13.494;2023-01-15T11:45:23;8.70;1.00
9768;DHT22;4923;52.520;13.494;2023-01-15T11:48:27;8.60;1.00
9768;DHT22;4923;52.520;13.494;2023-01-15T11:51:37;8.70;1.00
9768;DHT22;4923;52.520;13.494;2023-01-15T11:54:26;8.60;1.00
9768;DHT22;4923;52.520;13.494;2023-01-15T11:57:23;8.60;1.00
9768;DHT22;4923;52.520;13.494;2023-01-15T12:00:20;8.60;1.00
9768;DHT22;4923;52.520;13.494;2023-01-15T12:03:12;8.50;1.00
9768;DHT22;4923;52.520;13.494;2023-01-15T12:06:04;8.40;1.00
9768;DHT22;4923;52.520;13.494;2023-01-15T12:08:59;8.40;1.00
9768;DHT22;4923;52.520;13.494;2023-01-15T12:11:59;8.40;1.00
9768;DHT22;4923;52.520;13.494;2023-01-15T12:15:09;8.40;1.00
9768;DHT22;4923;52.520;13.494;2023-01-15T12:21:21;8.50;1.00
9768;DHT22;4923;52.520;13.494;2023-01-15T12:27:50;8.60;1.00
9768;DHT22;4923;52.520;13.494;2023-01-15T12:30:43;8.60;1.00
9768;DHT22;4923;52.520;13.494;2023-01-15T12:33:41;8.70;1.00
9768;DHT22;4923;52.520;13.494;2023-01-15T12:36:36;8.70;1.00
9768;DHT22;4923;52.520;13.494;2023-01-15T12:39:30;8.50;1.00
9768;DHT22;4923;52.520;13.494;2023-01-15T12:42:21;8.50;1.00
9768;DHT22;4923;52.520;13.494;2023-01-15T12:45:30;8.50;1.00
9768;DHT22;4923;52.520;13.494;2023-01-15T12:48:20;8.50;1.00
9768;DHT22;4923;52.520;13.494;2023-01-15T12:51:13;8.60;1.00
9768;DHT22;4923;52.520;13.494;2023-01-15T12:54:03;8.50;1.00
9768;DHT22;4923;52.520;13.494;2023-01-15T12:56:58;8.50;1.00
9768;DHT22;4923;52.520;13.494;2023-01-15T12:59:49;8.40;1.00
9768;DHT22;4923;52.520;13.494;2023-01-15T13:02:46;8.40;1.00
9768;DHT22;4923;52.520;13.494;2023-01-15T13:05:39;8.40;1.00
9768;DHT22;4923;52.520;13.494;2023-01-15T13:08:31;8.40;1.00
9768;DHT22;4923;52.520;13.494;2023-01-15T13:11:20;8.40;1.00
9768;DHT22;4923;52.520;13.494;2023-01-15T13:14:14;8.40;1.00
9768;DHT22;4923;52.520;13.494;2023-01-15T13:17:05;8.40;1.00
9768;DHT22;4923;52.520;13.494;2023-01-15T13:20:11;8.50;1.00
9768;DHT22;4923;52.520;13.494;2023-01-15T13:23:07;8.40;1.00
9768;DHT22;4923;52.520;13.494;2023-01-15T13:26:02;8.30;1.00
9768;DHT22;4923;52.520;13.494;2023-01-15T13:29:00;8.20;1.00
9768;DHT22;4923;52.520;13.494;2023-01-15T13:31:57;8.10;1.00
9768;DHT22;4923;52.520;13.494;2023-01-15T13:34:49;8.00;1.00
9768;DHT22;4923;52.520;13.494;2023-01-15T13:37:42;7.90;1.00
9768;DHT22;4923;52.520;13.494;2023-01-15T13:40:32;7.70;1.00
9768;DHT22;4923;52.520;13.494;2023-01-15T13:43:32;7.60;1.00
9768;DHT22;4923;52.520;13.494;2023-01-15T13:46:20;7.60;1.00
9768;DHT22;4923;52.520;13.494;2023-01-15T13:49:17;7.50;1.00
9768;DHT22;4923;52.520;13.494;2023-01-15T13:52:07;7.40;1.00
9768;DHT22;4923;52.520;13.494;2023-01-15T13:55:09;7.40;1.00
9768;DHT22;4923;52.520;13.494;2023-01-15T13:57:57;7.30;1.00
9768;DHT22;4923;52.520;13.494;2023-01-15T14:00:44;7.30;1.00
9768;DHT22;4923;52.520;13.494;2023-01-15T14:03:33;7.30;1.00
9768;DHT22;4923;52.520;13.494;2023-01-15T14:06:22;7.40;1.00
9768;DHT22;4923;52.520;13.494;2023-01-15T14:09:25;7.50;1.00
9768;DHT22;4923;52.520;13.494;2023-01-15T14:12:22;7.60;1.00
9768;DHT22;4923;52.520;13.494;2023-01-15T14:15:29;7.70;1.00
9768;DHT22;4923;52.520;13.494;2023-01-15T14:21:55;7.40;1.00
9768;DHT22;4923;52.520;13.494;2023-01-15T14:28:10;7.30;1.00
9768;DHT22;4923;52.520;13.494;2023-01-15T14:31:10;7.30;1.00
9768;DHT22;4923;52.520;13.494;2023-01-15T14:34:12;7.40;1.00
9768;DHT22;4923;52.520;13.494;2023-01-15T14:37:03;7.40;1.00
9768;DHT22;4923;52.520;13.494;2023-01-15T14:39:54;7.40;1.00
9768;DHT22;4923;52.520;13.494;2023-01-15T14:42:46;7.40;1.00
9768;DHT22;4923;52.520;13.494;2023-01-15T14:45:52;7.40;1.00
9768;DHT22;4923;52.520;13.494;2023-01-15T14:48:39;7.40;1.00
9768;DHT22;4923;52.520;13.494;2023-01-15T14:51:27;7.30;1.00
9768;DHT22;4923;52.520;13.494;2023-01-15T14:54:18;7.20;1.00
9768;DHT22;4923;52.520;13.494;2023-01-15T14:57:07;7.20;1.00
9768;DHT22;4923;52.520;13.494;2023-01-15T14:59:57;7.30;1.00
9768;DHT22;4923;52.520;13.494;2023-01-15T15:02:48;7.30;1.00
9768;DHT22;4923;52.520;13.494;2023-01-15T15:05:36;7.30;1.00
9768;DHT22;4923;52.520;13.494;2023-01-15T15:08:26;7.30;1.00
9768;DHT22;4923;52.520;13.494;2023-01-15T15:11:22;7.40;1.00
9768;DHT22;4923;52.520;13.494;2023-01-15T15:14:28;7.30;1.00
9768;DHT22;4923;52.520;13.494;2023-01-15T15:17:20;7.10;1.00
9768;DHT22;4923;52.520;13.494;2023-01-15T15:20:20;7.00;1.00
9768;DHT22;4923;52.520;13.494;2023-01-15T15:23:11;6.80;1.00
9768;DHT22;4923;52.520;13.494;2023-01-15T15:26:02;6.70;1.00
9768;DHT22;4923;52.520;13.494;2023-01-15T15:29:00;6.60;1.00
9768;DHT22;4923;52.520;13.494;2023-01-15T15:31:50;6.50;1.00
9768;DHT22;4923;52.520;13.494;2023-01-15T15:34:42;6.40;1.00
9768;DHT22;4923;52.520;13.494;2023-01-15T15:37:32;6.30;1.00
9768;DHT22;4923;52.520;13.494;2023-01-15T15:40:22;6.30;1.00
9768;DHT22;4923;52.520;13.494;2023-01-15T15:43:13;6.20;1.00
9768;DHT22;4923;52.520;13.494;2023-01-15T15:46:26;6.10;1.00
9768;DHT22;4923;52.520;13.494;2023-01-15T15:49:37;6.10;1.00
9768;DHT22;4923;52.520;13.494;2023-01-15T15:52:24;6.00;1.00
9768;DHT22;4923;52.520;13.494;2023-01-15T15:55:14;5.90;1.00
9768;DHT22;4923;52.520;13.494;2023-01-15T15:58:02;5.90;1.00
9768;DHT22;4923;52.520;13.494;2023-01-15T16:00:50;5.80;1.00
9768;DHT22;4923;52.520;13.494;2023-01-15T16:03:45;5.80;1.00
9768;DHT22;4923;52.520;13.494;2023-01-15T16:06:32;5.70;1.00
9768;DHT22;4923;52.520;13.494;2023-01-15T16:09:21;5.80;1.00
9768;DHT22;4923;52.520;13.494;2023-01-15T16:12:11;5.70;1.00
9768;DHT22;4923;52.520;13.494;2023-01-15T16:14:59;5.70;1.00
9768;DHT22;4923;52.520;13.494;2023-01-15T16:17:47;5.70;1.00
9768;DHT22;4923;52.520;13.494;2023-01-15T16:20:38;5.70;1.00
9768;DHT22;4923;52.520;13.494;2023-01-15T16:23:27;5.70;1.00
9768;DHT22;4923;52.520;13.494;2023-01-15T16:26:16;5.60;1.00
9768;DHT22;4923;52.520;13.494;2023-01-15T16:29:15;5.60;1.00
9768;DHT22;4923;52.520;13.494;2023-01-15T16:32:09;5.60;1.00
9768;DHT22;4923;52.520;13.494;2023-01-15T16:35:04;5.60;1.00
9768;DHT22;4923;52.520;13.494;2023-01-15T16:37:54;5.60;1.00
9768;DHT22;4923;52.520;13.494;2023-01-15T16:40:44;5.50;1.00
9768;DHT22;4923;52.520;13.494;2023-01-15T16:43:31;5.50;1.00
9768;DHT22;4923;52.520;13.494;2023-01-15T16:46:38;5.40;1.00
9768;DHT22;4923;52.520;13.494;2023-01-15T16:49:27;5.40;1.00
9768;DHT22;4923;52.520;13.494;2023-01-15T16:52:33;5.40;1.00
9768;DHT22;4923;52.520;13.494;2023-01-15T16:55:42;5.50;1.00
9768;DHT22;4923;52.520;13.494;2023-01-15T16:58:34;5.50;1.00
9768;DHT22;4923;52.520;13.494;2023-01-15T17:01:37;5.50;1.00
9768;DHT22;4923;52.520;13.494;2023-01-15T17:04:28;5.40;1.00
9768;DHT22;4923;52.520;13.494;2023-01-15T17:07:17;5.40;1.00
9768;DHT22;4923;52.520;13.494;2023-01-15T17:10:17;5.50;1.00
9768;DHT22;4923;52.520;13.494;2023-01-15T17:13:15;5.50;1.00
9768;DHT22;4923;52.520;13.494;2023-01-15T17:16:05;5.50;1.00
9768;DHT22;4923;52.520;13.494;2023-01-15T17:19:03;5.40;1.00
9768;DHT22;4923;52.520;13.494;2023-01-15T17:21:50;5.40;1.00
9768;DHT22;4923;52.520;13.494;2023-01-15T17:24:45;5.40;1.00
9768;DHT22;4923;52.520;13.494;2023-01-15T17:27:32;5.40;1.00
9768;DHT22;4923;52.520;13.494;2023-01-15T17:30:21;5.40;1.00
9768;DHT22;4923;52.520;13.494;2023-01-15T17:33:15;5.40;1.00
9768;DHT22;4923;52.520;13.494;2023-01-15T17:36:02;5.40;1.00
9768;DHT22;4923;52.520;13.494;2023-01-15T17:38:49;5.40;1.00
9768;DHT22;4923;52.520;13.494;2023-01-15T17:41:36;5.40;1.00
9768;DHT22;4923;52.520;13.494;2023-01-15T17:44:23;5.40;1.00
9768;DHT22;4923;52.520;13.494;2023-01-15T17:47:11;5.50;1.00
9768;DHT22;4923;52.520;13.494;2023-01-15T17:49:58;5.40;1.00
9768;DHT22;4923;52.520;13.494;2023-01-15T17:52:45;5.30;1.00
9768;DHT22;4923;52.520;13.494;2023-01-15T17:55:32;5.40;1.00
9768;DHT22;4923;52.520;13.494;2023-01-15T17:58:37;5.40;1.00
9768;DHT22;4923;52.520;13.494;2023-01-15T18:01:43;5.40;1.00
9768;DHT22;4923;52.520;13.494;2023-01-15T18:04:53;5.40;1.00
9768;DHT22;4923;52.520;13.494;2023-01-15T18:07:59;5.40;1.00
9768;DHT22;4923;52.520;13.494;2023-01-15T18:10:48;5.50;1.00
9768;DHT22;4923;52.520;13.494;2023-01-15T18:13:35;5.50;1.00
9768;DHT22;4923;52.520;13.494;2023-01-15T18:16:22;5.50;1.00
9768;DHT22;4923;52.520;13.494;2023-01-15T18:19:09;5.40;1.00
9768;DHT22;4923;52.520;13.494;2023-01-15T18:21:58;5.40;1.00
9768;DHT22;4923;52.520;13.494;2023-01-15T18:24:44;5.30;1.00
9768;DHT22;4923;52.520;13.494;2023-01-15T18:27:32;5.40;1.00
9768;DHT22;4923;52.520;13.494;2023-01-15T18:30:19;5.30;1.00
9768;DHT22;4923;52.520;13.494;2023-01-15T18:33:06;5.30;1.00
9768;DHT22;4923;52.520;13.494;2023-01-15T18:36:01;5.40;1.00
9768;DHT22;4923;52.520;13.494;2023-01-15T18:38:49;5.40;1.00
9768;DHT22;4923;52.520;13.494;2023-01-15T18:41:36;5.40;1.00
9768;DHT22;4923;52.520;13.494;2023-01-15T18:44:41;5.40;1.00
9768;DHT22;4923;52.520;13.494;2023-01-15T18:47:45;5.50;1.00
9768;DHT22;4923;52.520;13.494;2023-01-15T18:50:32;5.50;1.00
9768;DHT22;4923;52.520;13.494;2023-01-15T18:53:19;5.50;1.00
9768;DHT22;4923;52.520;13.494;2023-01-15T18:56:07;5.40;1.00
9768;DHT22;4923;52.520;13.494;2023-01-15T18:58:54;5.50;1.00
9768;DHT22;4923;52.520;13.494;2023-01-15T19:01:41;5.50;1.00
9768;DHT22;4923;52.520;13.494;2023-01-15T19:04:28;5.60;1.00
9768;DHT22;4923;52.520;13.494;2023-01-15T19:07:16;5.70;1.00